createdAt,value
2023-04-16T00:00:34.187Z,147000.94
2023-04-16T00:01:36.709Z,147008.16
2023-04-16T00:02:39.455Z,147017.88
2023-04-16T00:03:42.140Z,147034.75
2023-04-16T00:04:45.028Z,147033.53
2023-04-16T00:05:47.514Z,147032.34
2023-04-16T00:06:50.051Z,147046.88
2023-04-16T00:07:53.037Z,147048.06
2023-04-16T00:08:55.450Z,147045.66
2023-04-16T00:09:57.959Z,147061.34
2023-04-16T00:11:00.595Z,147062.56
2023-04-16T00:12:03.715Z,147081.91
2023-04-16T00:13:06.120Z,147071.00
2023-04-16T00:14:08.640Z,147087.94
2023-04-16T00:15:11.287Z,147083.09
2023-04-16T00:16:13.828Z,147090.34
2023-04-16T00:17:16.320Z,147100.00
2023-04-16T00:18:19.565Z,147097.59
2023-04-16T00:19:22.200Z,147109.69
2023-04-16T00:20:24.734Z,147109.69
2023-04-16T00:21:27.246Z,147097.59
2023-04-16T00:22:29.772Z,147092.75
2023-04-16T00:23:32.527Z,147092.75
2023-04-16T00:24:34.923Z,147085.53
2023-04-16T00:25:37.326Z,147080.69
2023-04-16T00:26:41.073Z,147080.69
2023-04-16T00:27:43.564Z,147084.31
2023-04-16T00:28:46.088Z,147083.09
2023-04-16T00:29:48.622Z,147075.81
2023-04-16T00:30:51.268Z,147078.28
2023-04-16T00:31:53.889Z,147075.81
2023-04-16T00:32:56.592Z,147080.69
2023-04-16T00:33:59.535Z,147091.56
2023-04-16T00:35:02.101Z,147068.59
2023-04-16T00:36:05.050Z,147075.81
2023-04-16T00:37:07.570Z,147066.16
2023-04-16T00:38:10.097Z,147072.19
2023-04-16T00:39:12.636Z,147058.94
2023-04-16T00:40:15.156Z,147083.09
2023-04-16T00:41:18.012Z,147068.59
2023-04-16T00:42:20.535Z,147078.28
2023-04-16T00:43:24.979Z,147077.03
2023-04-16T00:44:27.738Z,147078.28
2023-04-16T00:45:30.150Z,147071.00
2023-04-16T00:46:33.096Z,147066.16
2023-04-16T00:47:35.663Z,147054.09
2023-04-16T00:48:39.987Z,147055.31
2023-04-16T00:49:42.498Z,147079.50
2023-04-16T00:50:45.027Z,147062.56
2023-04-16T00:51:48.260Z,147073.41
2023-04-16T00:52:51.029Z,147062.56
2023-04-16T00:53:53.555Z,147049.28
2023-04-16T00:54:56.538Z,147040.78
2023-04-16T00:55:59.432Z,147038.38
2023-04-16T00:57:02.674Z,147038.38
2023-04-16T00:58:06.622Z,147017.88
2023-04-16T00:59:10.309Z,147046.88
2023-04-16T01:00:13.715Z,147038.38
2023-04-16T01:01:16.448Z,147028.72
2023-04-16T01:02:19.000Z,147021.47
2023-04-16T01:03:21.671Z,147023.91
2023-04-16T01:04:24.709Z,147013.03
2023-04-16T01:05:27.268Z,147021.47
2023-04-16T01:06:29.675Z,147009.38
2023-04-16T01:07:32.332Z,147015.44
2023-04-16T01:08:34.859Z,147015.44
2023-04-16T01:09:37.838Z,147010.56
2023-04-16T01:10:40.353Z,147000.94
2023-04-16T01:11:42.884Z,147008.16
2023-04-16T01:12:45.754Z,146999.72
2023-04-16T01:13:48.281Z,146997.31
2023-04-16T01:14:50.799Z,147008.16
2023-04-16T01:15:53.353Z,146994.91
2023-04-16T01:16:56.088Z,146993.69
2023-04-16T01:17:58.667Z,146993.69
2023-04-16T01:19:01.484Z,146986.44
2023-04-16T01:20:04.122Z,146980.41
2023-04-16T01:21:07.129Z,146986.44
2023-04-16T01:22:09.554Z,146965.91
2023-04-16T01:23:12.054Z,146981.63
2023-04-16T01:24:14.451Z,146969.50
2023-04-16T01:25:17.096Z,146961.06
2023-04-16T01:26:20.207Z,146956.25
2023-04-16T01:27:22.728Z,146940.53
2023-04-16T01:28:25.258Z,146930.88
2023-04-16T01:29:28.011Z,146923.63
2023-04-16T01:30:32.817Z,146920.03
2023-04-16T01:32:04.510Z,146921.22
2023-04-16T01:33:11.332Z,146926.03
2023-04-16T01:34:13.854Z,146895.84
2023-04-16T01:35:18.208Z,146889.81
2023-04-16T01:36:20.819Z,146887.41
2023-04-16T01:37:23.334Z,146877.72
2023-04-16T01:38:25.981Z,146898.25
2023-04-16T01:39:28.495Z,146899.47
2023-04-16T01:40:32.699Z,146885.00
2023-04-16T01:41:36.300Z,146880.13
2023-04-16T01:42:39.057Z,146894.66
2023-04-16T01:43:42.659Z,146894.66
2023-04-16T01:44:47.699Z,146921.22
2023-04-16T01:45:50.461Z,146900.69
2023-04-16T01:46:53.289Z,146894.66
2023-04-16T01:47:57.234Z,146889.81
2023-04-16T01:49:00.791Z,146885.00
2023-04-16T01:50:05.711Z,146918.81
2023-04-16T01:51:08.231Z,146906.72
2023-04-16T01:52:10.747Z,146916.41
2023-04-16T01:53:13.146Z,146901.88
2023-04-16T01:54:15.794Z,146903.09
2023-04-16T01:55:18.437Z,146915.16
2023-04-16T01:56:21.071Z,146910.31
2023-04-16T01:57:24.194Z,146911.53
2023-04-16T01:58:30.437Z,146918.81
2023-04-16T01:59:32.834Z,146894.66
2023-04-16T02:00:35.504Z,146899.47
2023-04-16T02:01:38.862Z,146894.66
2023-04-16T02:02:41.654Z,146898.25
2023-04-16T02:03:44.707Z,146892.22
2023-04-16T02:04:47.365Z,146893.44
2023-04-16T02:05:49.873Z,146888.63
2023-04-16T02:06:52.397Z,146887.41
2023-04-16T02:07:54.915Z,146906.72
2023-04-16T02:08:57.444Z,146899.47
2023-04-16T02:10:01.398Z,146897.06
2023-04-16T02:11:04.034Z,146894.66
2023-04-16T02:12:07.524Z,146911.53
2023-04-16T02:13:10.038Z,146926.03
2023-04-16T02:14:12.917Z,146922.44
2023-04-16T02:15:16.518Z,146913.94
2023-04-16T02:16:19.570Z,146905.50
2023-04-16T02:17:32.661Z,146921.22
2023-04-16T02:18:44.658Z,146921.22
2023-04-16T02:19:49.761Z,146921.22
2023-04-16T02:20:52.412Z,146916.41
2023-04-16T02:21:55.169Z,146911.53
2023-04-16T02:22:57.678Z,146910.31
2023-04-16T02:24:00.563Z,146916.41
2023-04-16T02:25:06.084Z,146913.94
2023-04-16T02:26:08.718Z,146909.13
2023-04-16T02:27:11.395Z,146918.81
2023-04-16T02:28:18.081Z,146944.16
2023-04-16T02:29:22.768Z,146926.03
2023-04-16T02:30:35.367Z,146916.41
2023-04-16T02:31:39.105Z,146889.81
2023-04-16T02:32:42.486Z,146875.31
2023-04-16T02:33:45.210Z,146865.66
2023-04-16T02:34:47.725Z,146856.00
2023-04-16T02:35:51.698Z,146848.72
2023-04-16T02:36:55.187Z,146859.63
2023-04-16T02:37:58.050Z,146858.41
2023-04-16T02:39:00.567Z,146848.72
2023-04-16T02:40:03.096Z,146846.31
2023-04-16T02:41:05.610Z,146872.88
2023-04-16T02:42:09.573Z,146863.25
2023-04-16T02:43:12.218Z,146866.88
2023-04-16T02:44:14.770Z,146872.88
2023-04-16T02:45:17.258Z,146889.81
2023-04-16T02:46:19.855Z,146888.63
2023-04-16T02:47:22.454Z,146886.19
2023-04-16T02:48:25.419Z,146897.06
2023-04-16T02:49:27.825Z,146881.34
2023-04-16T02:50:30.465Z,146870.47
2023-04-16T02:51:38.263Z,146900.69
2023-04-16T02:52:40.899Z,146854.81
2023-04-16T02:53:46.299Z,146851.19
2023-04-16T02:54:49.542Z,146856.00
2023-04-16T02:55:53.858Z,146863.25
2023-04-16T02:56:56.982Z,146852.41
2023-04-16T02:57:59.389Z,146848.72
2023-04-16T02:59:02.079Z,146843.91
2023-04-16T03:00:05.403Z,146847.53
2023-04-16T03:01:07.821Z,146852.41
2023-04-16T03:02:10.342Z,146858.41
2023-04-16T03:03:13.106Z,146865.66
2023-04-16T03:04:16.042Z,146860.84
2023-04-16T03:05:18.707Z,146866.88
2023-04-16T03:06:22.320Z,146858.41
2023-04-16T03:07:24.839Z,146865.66
2023-04-16T03:08:27.711Z,146865.66
2023-04-16T03:09:30.351Z,146880.13
2023-04-16T03:10:33.112Z,146874.09
2023-04-16T03:11:35.872Z,146876.50
2023-04-16T03:12:39.236Z,146878.94
2023-04-16T03:13:42.595Z,146875.31
2023-04-16T03:14:46.242Z,146870.47
2023-04-16T03:15:50.208Z,146889.81
2023-04-16T03:16:52.917Z,146872.88
2023-04-16T03:17:55.866Z,146868.06
2023-04-16T03:18:58.437Z,146862.03
2023-04-16T03:20:01.084Z,146859.63
2023-04-16T03:21:03.719Z,146868.06
2023-04-16T03:22:06.371Z,146875.31
2023-04-16T03:23:09.598Z,146876.50
2023-04-16T03:24:12.004Z,146875.31
2023-04-16T03:25:14.766Z,146877.72
2023-04-16T03:26:17.284Z,146878.94
2023-04-16T03:27:20.281Z,146875.31
2023-04-16T03:28:24.249Z,146882.53
2023-04-16T03:29:27.363Z,146880.13
2023-04-16T03:30:30.852Z,146875.31
2023-04-16T03:31:33.391Z,146877.72
2023-04-16T03:32:36.516Z,146892.22
2023-04-16T03:33:39.727Z,146891.03
2023-04-16T03:34:42.136Z,146887.41
2023-04-16T03:35:44.648Z,146903.09
2023-04-16T03:36:47.173Z,146897.06
2023-04-16T03:37:50.651Z,146913.94
2023-04-16T03:38:53.897Z,146906.72
2023-04-16T03:39:56.424Z,146911.53
2023-04-16T03:40:58.817Z,146921.22
2023-04-16T03:42:02.553Z,146918.81
2023-04-16T03:43:04.934Z,146911.53
2023-04-16T03:44:08.552Z,146906.72
2023-04-16T03:45:11.294Z,146911.53
2023-04-16T03:46:14.676Z,146905.50
2023-04-16T03:47:17.233Z,146913.94
2023-04-16T03:48:20.925Z,146910.31
2023-04-16T03:49:23.418Z,146901.88
2023-04-16T03:50:26.667Z,146901.88
2023-04-16T03:51:29.567Z,146900.69
2023-04-16T03:52:32.182Z,146911.53
2023-04-16T03:53:34.615Z,146922.44
2023-04-16T03:54:37.106Z,146913.94
2023-04-16T03:55:54.386Z,146930.88
2023-04-16T03:56:58.001Z,146917.59
2023-04-16T03:58:03.269Z,146906.72
2023-04-16T03:59:07.460Z,146904.28
2023-04-16T04:00:10.352Z,146897.06
2023-04-16T04:01:32.753Z,146892.22
2023-04-16T04:02:35.798Z,146887.41
2023-04-16T04:03:38.467Z,146916.41
2023-04-16T04:04:41.263Z,146921.22
2023-04-16T04:05:44.911Z,146915.16
2023-04-16T04:06:50.076Z,146909.13
2023-04-16T04:07:53.316Z,146899.47
2023-04-16T04:08:55.832Z,146904.28
2023-04-16T04:09:58.356Z,146910.31
2023-04-16T04:11:01.116Z,146899.47
2023-04-16T04:12:03.899Z,146897.06
2023-04-16T04:13:07.736Z,146899.47
2023-04-16T04:14:10.955Z,146894.66
2023-04-16T04:15:13.479Z,146891.03
2023-04-16T04:16:18.098Z,146894.66
2023-04-16T04:17:20.721Z,146903.09
2023-04-16T04:18:23.197Z,146897.06
2023-04-16T04:19:25.721Z,146892.22
2023-04-16T04:20:28.248Z,146889.81
2023-04-16T04:21:31.846Z,146891.03
2023-04-16T04:22:34.367Z,146898.25
2023-04-16T04:23:37.028Z,146903.09
2023-04-16T04:24:40.966Z,146906.72
2023-04-16T04:25:43.376Z,146906.72
2023-04-16T04:26:45.771Z,146904.28
2023-04-16T04:27:49.377Z,146906.72
2023-04-16T04:28:51.890Z,146901.88
2023-04-16T04:29:54.646Z,146901.88
2023-04-16T04:30:58.974Z,146906.72
2023-04-16T04:32:01.604Z,146898.25
2023-04-16T04:33:04.295Z,146912.75
2023-04-16T04:34:06.771Z,146918.81
2023-04-16T04:35:09.907Z,146947.75
2023-04-16T04:36:12.420Z,146958.66
2023-04-16T04:37:14.930Z,146976.75
2023-04-16T04:38:20.219Z,146961.06
2023-04-16T04:39:23.813Z,146950.22
2023-04-16T04:40:26.455Z,146945.34
2023-04-16T04:41:28.973Z,146979.16
2023-04-16T04:42:31.493Z,146962.28
2023-04-16T04:43:33.903Z,146964.69
2023-04-16T04:44:36.414Z,146969.50
2023-04-16T04:45:38.832Z,146984.03
2023-04-16T04:46:41.342Z,146971.94
2023-04-16T04:47:43.892Z,146974.34
2023-04-16T04:48:46.540Z,146974.34
2023-04-16T04:49:51.540Z,146971.94
2023-04-16T04:50:55.855Z,146974.34
2023-04-16T04:51:58.378Z,146971.94
2023-04-16T04:53:01.029Z,146981.63
2023-04-16T04:54:03.539Z,146984.03
2023-04-16T04:55:06.186Z,147013.03
2023-04-16T04:56:12.183Z,147010.56
2023-04-16T04:57:16.520Z,147019.06
2023-04-16T04:58:19.504Z,147021.47
2023-04-16T04:59:22.042Z,147015.44
2023-04-16T05:00:25.029Z,147011.78
2023-04-16T05:01:30.199Z,147023.91
2023-04-16T05:02:32.872Z,147022.69
2023-04-16T05:03:35.649Z,147040.78
2023-04-16T05:04:38.289Z,147042.00
2023-04-16T05:05:41.611Z,147049.28
2023-04-16T05:06:44.706Z,147061.34
2023-04-16T05:07:47.120Z,147049.28
2023-04-16T05:08:49.633Z,147051.69
2023-04-16T05:09:52.163Z,147064.97
2023-04-16T05:10:54.569Z,147071.00
2023-04-16T05:11:57.688Z,147067.38
2023-04-16T05:13:00.244Z,147073.41
2023-04-16T05:14:02.715Z,147089.13
2023-04-16T05:15:05.480Z,147097.59
2023-04-16T05:16:08.117Z,147100.00
2023-04-16T05:17:11.029Z,147107.28
2023-04-16T05:18:13.518Z,147107.28
2023-04-16T05:19:17.238Z,147132.69
2023-04-16T05:20:19.760Z,147126.66
2023-04-16T05:21:22.641Z,147133.88
2023-04-16T05:22:25.292Z,147131.47
2023-04-16T05:23:28.045Z,147132.69
2023-04-16T05:24:30.565Z,147130.25
2023-04-16T05:25:33.100Z,147136.31
2023-04-16T05:26:35.726Z,147149.63
2023-04-16T05:27:38.550Z,147155.66
2023-04-16T05:28:41.125Z,147172.56
2023-04-16T05:29:43.528Z,147174.97
2023-04-16T05:30:46.078Z,147185.88
2023-04-16T05:31:48.569Z,147207.59
2023-04-16T05:32:51.737Z,147222.13
2023-04-16T05:33:54.218Z,147223.34
2023-04-16T05:34:56.734Z,147240.25
2023-04-16T05:35:59.248Z,147252.38
2023-04-16T05:37:01.790Z,147277.75
2023-04-16T05:38:07.295Z,147300.69
2023-04-16T05:39:10.920Z,147301.91
2023-04-16T05:40:14.383Z,147320.06
2023-04-16T05:41:16.900Z,147327.31
2023-04-16T05:42:19.422Z,147349.09
2023-04-16T05:43:21.929Z,147380.53
2023-04-16T05:44:24.333Z,147397.44
2023-04-16T05:45:28.029Z,147391.41
2023-04-16T05:46:31.481Z,147404.75
2023-04-16T05:47:34.008Z,147419.25
2023-04-16T05:48:36.361Z,147436.16
2023-04-16T05:49:38.860Z,147447.06
2023-04-16T05:50:41.508Z,147486.97
2023-04-16T05:51:44.017Z,147508.78
2023-04-16T05:52:46.541Z,147516.03
2023-04-16T05:53:48.939Z,147547.47
2023-04-16T05:54:51.460Z,147571.75
2023-04-16T05:55:53.979Z,147603.22
2023-04-16T05:56:56.624Z,147595.91
2023-04-16T05:57:59.387Z,147638.31
2023-04-16T05:59:01.909Z,147646.75
2023-04-16T06:00:04.903Z,147691.53
2023-04-16T06:01:14.501Z,147721.81
2023-04-16T06:02:17.078Z,147719.38
2023-04-16T06:03:19.719Z,147729.06
2023-04-16T06:04:22.313Z,147737.56
2023-04-16T06:05:26.932Z,147755.69
2023-04-16T06:06:29.505Z,147736.34
2023-04-16T06:07:32.026Z,147730.31
2023-04-16T06:08:34.435Z,147729.06
2023-04-16T06:09:37.074Z,147741.19
2023-04-16T06:10:39.597Z,147729.06
2023-04-16T06:11:42.247Z,147749.66
2023-04-16T06:12:44.990Z,147760.53
2023-04-16T06:13:47.322Z,147747.22
2023-04-16T06:14:50.536Z,147767.84
2023-04-16T06:15:53.165Z,147779.94
2023-04-16T06:16:56.519Z,147779.94
2023-04-16T06:18:00.772Z,147782.34
2023-04-16T06:19:03.590Z,147796.91
2023-04-16T06:20:06.838Z,147816.25
2023-04-16T06:21:09.359Z,147818.66
2023-04-16T06:22:11.995Z,147823.50
2023-04-16T06:23:14.529Z,147823.50
2023-04-16T06:24:18.601Z,147806.56
2023-04-16T06:25:21.121Z,147818.66
2023-04-16T06:26:23.639Z,147850.16
2023-04-16T06:27:26.171Z,147834.44
2023-04-16T06:28:28.681Z,147840.47
2023-04-16T06:29:40.474Z,147851.38
2023-04-16T06:30:44.746Z,147898.63
2023-04-16T06:31:48.492Z,147910.72
2023-04-16T06:32:51.358Z,147904.66
2023-04-16T06:33:53.895Z,147933.78
2023-04-16T06:50:26.745Z,148051.28
2023-04-16T06:51:29.083Z,148016.16
2023-04-16T06:52:31.317Z,148025.88
2023-04-16T06:53:33.593Z,148004.06
2023-04-16T06:54:36.217Z,148034.34
2023-04-16T06:55:38.353Z,148023.41
2023-04-16T06:56:40.672Z,148022.19
2023-04-16T06:57:42.862Z,148074.31
2023-04-16T06:58:44.995Z,148082.78
2023-04-16T06:59:47.157Z,148111.88
2023-04-16T07:00:49.352Z,148127.66
2023-04-16T07:01:53.006Z,148143.41
2023-04-16T07:02:57.093Z,148153.09
2023-04-16T07:04:00.832Z,148194.34
2023-04-16T07:05:03.312Z,148194.34
2023-04-16T07:06:05.554Z,148184.59
2023-04-16T07:07:08.649Z,148168.88
2023-04-16T07:08:11.257Z,148185.81
2023-04-16T07:09:13.416Z,148200.38
2023-04-16T07:10:16.785Z,148194.34
2023-04-16T07:11:19.444Z,148187.03
2023-04-16T07:12:22.761Z,148252.53
2023-04-16T07:13:25.263Z,148258.63
2023-04-16T07:14:27.549Z,148222.22
2023-04-16T07:15:29.685Z,148274.38
2023-04-16T07:16:31.889Z,148303.47
2023-04-16T07:17:34.085Z,148296.22
2023-04-16T07:18:36.474Z,148330.16
2023-04-16T07:19:38.705Z,148332.59
2023-04-16T07:20:40.834Z,148342.28
2023-04-16T07:21:43.775Z,148339.88
2023-04-16T07:22:46.129Z,148350.81
2023-04-16T07:23:48.338Z,148383.56
2023-04-16T07:24:50.669Z,148392.03
2023-04-16T07:25:52.802Z,148360.50
2023-04-16T07:26:55.037Z,148349.53
2023-04-16T07:27:57.223Z,148319.28
2023-04-16T07:28:59.401Z,148359.28
2023-04-16T07:30:01.731Z,148383.56
2023-04-16T07:31:04.218Z,148349.53
2023-04-16T07:32:06.640Z,148342.28
2023-04-16T07:33:09.118Z,148341.06
2023-04-16T07:34:11.456Z,148356.84
2023-04-16T07:35:13.610Z,148337.44
2023-04-16T07:36:15.884Z,148381.09
2023-04-16T07:37:18.353Z,148410.19
2023-04-16T07:38:20.680Z,148404.13
2023-04-16T07:39:22.844Z,148411.41
2023-04-16T07:40:25.203Z,148449.06
2023-04-16T07:41:29.447Z,148417.50
2023-04-16T07:42:31.637Z,148407.78
2023-04-16T07:43:33.815Z,148432.03
2023-04-16T07:44:36.050Z,148427.19
2023-04-16T07:45:38.248Z,148438.09
2023-04-16T07:46:46.824Z,148453.91
2023-04-16T07:47:49.794Z,148466.00
2023-04-16T07:48:52.022Z,148412.63
2023-04-16T07:49:54.290Z,148415.03
2023-04-16T07:50:56.982Z,148446.59
2023-04-16T07:51:59.168Z,148475.69
2023-04-16T07:53:01.484Z,148476.91
2023-04-16T07:54:03.759Z,148453.91
2023-04-16T07:55:06.319Z,148458.75
2023-04-16T07:56:08.893Z,148468.44
2023-04-16T07:57:12.229Z,148478.13
2023-04-16T07:58:14.382Z,148470.84
2023-04-16T07:59:22.938Z,148485.44
2023-04-16T08:00:26.286Z,148456.31
2023-04-16T08:01:28.488Z,148489.06
2023-04-16T08:02:31.207Z,148507.25
2023-04-16T08:03:33.528Z,148497.56
2023-04-16T08:04:36.180Z,148519.41
2023-04-16T08:05:38.650Z,148560.69
2023-04-16T08:06:40.922Z,148533.94
2023-04-16T08:07:43.158Z,148633.50
2023-04-16T08:08:45.297Z,148614.13
2023-04-16T08:09:56.549Z,148677.19
2023-04-16T08:10:59.073Z,148701.47
2023-04-16T08:12:01.860Z,148718.50
2023-04-16T08:13:04.058Z,148747.63
2023-04-16T08:14:06.300Z,148733.03
2023-04-16T08:15:08.876Z,148733.03
2023-04-16T08:16:11.098Z,148740.31
2023-04-16T08:17:14.248Z,148709.97
2023-04-16T08:18:16.468Z,148733.03
2023-04-16T08:19:18.898Z,148730.63
2023-04-16T08:20:21.008Z,148725.75
2023-04-16T08:21:23.186Z,148730.63
2023-04-16T08:22:26.338Z,148764.59
2023-04-16T08:23:28.537Z,148769.47
2023-04-16T08:24:30.827Z,148773.09
2023-04-16T08:25:33.005Z,148793.75
2023-04-16T08:26:35.370Z,148861.78
2023-04-16T08:27:37.687Z,148861.78
2023-04-16T08:28:39.827Z,148842.41
2023-04-16T08:29:41.997Z,148881.25
2023-04-16T08:30:45.682Z,148839.94
2023-04-16T08:31:47.996Z,148819.25
2023-04-16T08:32:50.616Z,148863.00
2023-04-16T08:33:52.870Z,148900.66
2023-04-16T08:34:55.055Z,148881.25
2023-04-16T08:35:57.200Z,148894.59
2023-04-16T08:36:59.352Z,148852.09
2023-04-16T08:38:03.566Z,148864.22
2023-04-16T08:39:05.714Z,148839.94
2023-04-16T08:40:08.700Z,148854.53
2023-04-16T08:41:13.120Z,148798.59
2023-04-16T08:42:32.045Z,148786.47
2023-04-16T08:43:37.673Z,148716.06
2023-04-16T08:44:48.911Z,148756.13
2023-04-16T08:45:56.287Z,148770.66
2023-04-16T08:46:59.238Z,148779.19
2023-04-16T08:48:05.054Z,148764.59
2023-04-16T08:49:08.930Z,148775.53
2023-04-16T08:50:12.078Z,148753.69
2023-04-16T08:51:16.011Z,148763.41
2023-04-16T08:52:23.891Z,148810.78
2023-04-16T08:53:33.173Z,148793.75
2023-04-16T08:54:44.442Z,148847.25
2023-04-16T08:55:50.448Z,148818.06
2023-04-16T08:56:53.208Z,148782.84
2023-04-16T08:57:59.496Z,148810.78
2023-04-16T08:59:05.236Z,148831.38
2023-04-16T09:00:08.997Z,148796.19
2023-04-16T09:01:11.543Z,148773.09
2023-04-16T09:02:14.672Z,148796.19
2023-04-16T09:03:17.061Z,148780.41
2023-04-16T09:04:19.975Z,148804.66
2023-04-16T09:05:25.570Z,148785.25
2023-04-16T09:06:28.506Z,148803.44
2023-04-16T09:07:32.371Z,148827.75
2023-04-16T09:08:36.047Z,148776.78
2023-04-16T09:09:39.420Z,148767.03
2023-04-16T09:10:43.043Z,148781.63
2023-04-16T09:11:45.577Z,148790.13
2023-04-16T09:12:47.760Z,148781.63
2023-04-16T09:13:49.881Z,148771.88
2023-04-16T09:14:52.913Z,148788.91
2023-04-16T09:15:57.117Z,148785.25
2023-04-16T09:17:02.402Z,148805.88
2023-04-16T09:18:04.578Z,148781.63
2023-04-16T09:19:06.772Z,148822.91
2023-04-16T09:20:10.941Z,148827.75
2023-04-16T09:21:13.832Z,148788.91
2023-04-16T09:22:17.161Z,148751.28
2023-04-16T09:23:19.416Z,148796.19
2023-04-16T09:24:21.929Z,148813.19
2023-04-16T09:25:25.582Z,148799.81
2023-04-16T09:26:27.863Z,148770.66
2023-04-16T09:27:31.872Z,148736.69
2023-04-16T09:28:51.370Z,148751.28
2023-04-16T09:29:53.600Z,148695.41
2023-04-16T09:31:10.991Z,148737.88
2023-04-16T09:32:13.224Z,148711.22
2023-04-16T09:33:22.304Z,148750.06
2023-04-16T09:34:24.948Z,148748.84
2023-04-16T09:35:27.126Z,148793.75
2023-04-16T09:36:29.428Z,148740.31
2023-04-16T09:37:31.628Z,148746.41
2023-04-16T09:38:51.552Z,148801.03
2023-04-16T09:40:01.427Z,148837.50
2023-04-16T09:41:08.189Z,148820.47
2023-04-16T09:42:11.209Z,148856.94
2023-04-16T09:43:18.418Z,148859.38
2023-04-16T09:44:20.791Z,148873.97
2023-04-16T09:45:23.077Z,148876.41
2023-04-16T09:46:31.685Z,148933.44
2023-04-16T09:47:44.460Z,148968.66
2023-04-16T09:48:47.126Z,149003.91
2023-04-16T09:49:49.484Z,149039.19
2023-04-16T09:50:52.175Z,149019.72
2023-04-16T09:51:56.114Z,148982.06
2023-04-16T09:53:02.523Z,149019.72
2023-04-16T09:54:05.591Z,148992.97
2023-04-16T09:55:08.046Z,148967.47
2023-04-16T09:56:12.475Z,148983.28
2023-04-16T09:57:18.222Z,148973.56
2023-04-16T09:58:20.704Z,149052.53
2023-04-16T09:59:24.092Z,149121.81
2023-04-16T10:00:26.361Z,149109.69
2023-04-16T10:01:30.924Z,149121.81
2023-04-16T10:02:39.020Z,149126.69
2023-04-16T10:03:41.788Z,149169.25
2023-04-16T10:04:52.777Z,149265.22
2023-04-16T10:05:55.121Z,149231.19
2023-04-16T10:07:05.142Z,149257.94
2023-04-16T10:08:14.235Z,149299.28
2023-04-16T10:09:16.566Z,149182.59
2023-04-16T10:10:19.090Z,149265.22
2023-04-16T10:11:21.452Z,149262.81
2023-04-16T10:12:23.622Z,149294.41
2023-04-16T10:13:28.051Z,149390.53
2023-04-16T10:14:30.241Z,149433.13
2023-04-16T10:15:32.826Z,149448.91
2023-04-16T10:16:35.361Z,149452.56
2023-04-16T10:17:38.542Z,149396.59
2023-04-16T10:18:43.224Z,149447.72
2023-04-16T10:19:46.598Z,149469.63
2023-04-16T10:20:50.366Z,149473.25
2023-04-16T10:21:52.995Z,149400.28
2023-04-16T10:22:56.563Z,149406.38
2023-04-16T10:23:58.941Z,149476.91
2023-04-16T10:25:01.482Z,149495.13
2023-04-16T10:26:03.781Z,149450.13
2023-04-16T10:27:06.032Z,149508.53
2023-04-16T10:28:09.572Z,149568.19
2023-04-16T10:29:13.436Z,149517.03
2023-04-16T10:30:16.695Z,149504.88
2023-04-16T10:31:19.019Z,149531.66
2023-04-16T10:32:22.550Z,149557.16
2023-04-16T10:33:28.621Z,149555.97
2023-04-16T10:34:31.611Z,149579.13
2023-04-16T10:35:33.773Z,149654.56
2023-04-16T10:36:40.089Z,149751.91
2023-04-16T10:37:42.558Z,149624.13
2023-04-16T10:38:50.937Z,149664.31
2023-04-16T10:39:53.131Z,149703.25
2023-04-16T10:41:00.645Z,149639.97
2023-04-16T10:42:09.027Z,149691.06
2023-04-16T10:43:18.471Z,149665.53
2023-04-16T10:44:20.942Z,149593.72
2023-04-16T10:45:37.383Z,149661.91
2023-04-16T10:46:43.609Z,149695.97
2023-04-16T10:47:45.935Z,149687.41
2023-04-16T10:48:50.778Z,149719.06
2023-04-16T10:49:53.336Z,149776.28
2023-04-16T10:50:57.555Z,149834.78
2023-04-16T10:52:03.682Z,149804.34
2023-04-16T10:53:27.411Z,149831.13
2023-04-16T10:54:31.012Z,149717.84
2023-04-16T10:55:33.798Z,149637.53
2023-04-16T10:56:37.156Z,149629.03
2023-04-16T10:57:39.361Z,149688.63
2023-04-16T10:58:41.754Z,149598.63
2023-04-16T10:59:44.733Z,149554.75
2023-04-16T11:00:51.166Z,149571.84
2023-04-16T11:01:58.936Z,149587.63
2023-04-16T11:03:02.215Z,149599.84
2023-04-16T11:04:20.071Z,149657.00
2023-04-16T11:05:23.601Z,149591.28
2023-04-16T11:06:27.735Z,149574.28
2023-04-16T11:07:34.881Z,149577.91
2023-04-16T11:08:53.339Z,149664.31
2023-04-16T11:10:02.057Z,149705.69
2023-04-16T11:11:05.642Z,149608.34
2023-04-16T11:12:10.589Z,149581.56
2023-04-16T11:13:13.078Z,149594.97
2023-04-16T11:14:15.405Z,149586.41
2023-04-16T11:15:21.900Z,149519.47
2023-04-16T11:16:25.981Z,149575.47
2023-04-16T11:17:33.683Z,149493.91
2023-04-16T11:18:36.536Z,149613.19
2023-04-16T11:19:44.263Z,149661.91
2023-04-16T11:20:46.561Z,149630.25
2023-04-16T11:21:49.308Z,149674.03
2023-04-16T11:22:53.140Z,149683.78
2023-04-16T11:23:56.742Z,149611.97
2023-04-16T11:24:58.913Z,149647.28
2023-04-16T11:26:01.092Z,149590.06
2023-04-16T11:27:03.789Z,149622.91
2023-04-16T11:28:05.931Z,149622.91
2023-04-16T11:29:15.663Z,149649.69
2023-04-16T11:30:18.992Z,149664.31
2023-04-16T11:31:21.345Z,149700.84
2023-04-16T11:32:23.922Z,149688.63
2023-04-16T11:33:26.419Z,149708.13
2023-04-16T11:34:28.801Z,149725.13
2023-04-16T11:35:31.172Z,149747.06
2023-04-16T11:36:44.047Z,149846.94
2023-04-16T11:37:48.429Z,149844.50
2023-04-16T11:38:50.724Z,149885.88
2023-04-16T11:39:53.347Z,149890.78
2023-04-16T11:40:55.657Z,149968.72
2023-04-16T11:41:57.904Z,149980.88
2023-04-16T11:43:12.646Z,149989.47
2023-04-16T11:44:26.138Z,149932.19
2023-04-16T11:45:28.424Z,149961.41
2023-04-16T11:46:43.151Z,149980.88
2023-04-16T11:47:47.525Z,149905.38
2023-04-16T11:48:52.336Z,149910.25
2023-04-16T11:49:54.548Z,149929.75
2023-04-16T11:50:58.051Z,149955.28
2023-04-16T11:52:00.616Z,149889.53
2023-04-16T11:53:09.999Z,149917.53
2023-04-16T11:54:22.199Z,149873.72
2023-04-16T11:55:24.648Z,149739.78
2023-04-16T11:56:33.049Z,149786.06
2023-04-16T11:57:35.295Z,149727.63
2023-04-16T11:58:37.447Z,149717.84
2023-04-16T12:00:01.378Z,149695.97
2023-04-16T12:01:21.020Z,149672.84
2023-04-16T12:02:36.575Z,149610.78
2023-04-16T12:03:43.936Z,149680.13
2023-04-16T12:04:46.633Z,149667.97
2023-04-16T12:05:48.901Z,149657.00
2023-04-16T12:07:09.917Z,149764.13
2023-04-16T12:08:12.654Z,149715.41
2023-04-16T12:09:25.346Z,149637.53
2023-04-16T12:10:28.222Z,149630.25
2023-04-16T12:11:48.601Z,149671.63
2023-04-16T12:12:50.722Z,149602.25
2023-04-16T12:14:12.142Z,149625.34
2023-04-16T12:15:14.278Z,149535.31
2023-04-16T12:16:19.606Z,149618.06
2023-04-16T12:17:21.792Z,149610.78
2023-04-16T12:18:28.284Z,149564.56
2023-04-16T12:19:30.435Z,149580.34
2023-04-16T12:20:41.564Z,149697.19
2023-04-16T12:21:45.941Z,149660.69
2023-04-16T12:22:52.749Z,149692.28
2023-04-16T12:23:54.946Z,149733.69